createdAt,value
2024-01-11T00:01:48.025Z,101673.63
2024-01-11T00:04:51.299Z,101675.72
2024-01-11T00:07:54.113Z,101663.78
2024-01-11T00:10:57.375Z,101662.91
2024-01-11T00:14:01.095Z,101651.00
2024-01-11T00:17:03.997Z,101652.59
2024-01-11T00:20:07.375Z,101653.84
2024-01-11T00:23:10.169Z,101655.44
2024-01-11T00:26:15.895Z,101643.22
2024-01-11T00:29:18.739Z,101649.13
2024-01-11T00:32:22.656Z,101651.38
2024-01-11T00:35:25.687Z,101660.16
2024-01-11T00:38:28.105Z,101677.31
2024-01-11T00:41:30.908Z,101667.38
2024-01-11T00:44:33.414Z,101648.66
2024-01-11T00:47:36.296Z,101623.41
2024-01-11T00:50:38.923Z,101633.53
2024-01-11T00:53:41.983Z,101643.38
2024-01-11T00:56:44.399Z,101651.72
2024-01-11T00:59:47.253Z,101631.19
2024-01-11T01:02:49.687Z,101607.63
2024-01-11T01:05:52.629Z,101616.38
2024-01-11T01:08:56.659Z,101635.56
2024-01-11T01:11:59.430Z,101630.06
2024-01-11T01:15:01.844Z,101659.72
2024-01-11T01:18:05.539Z,101650.03
2024-01-11T01:21:08.276Z,101637.63
2024-01-11T01:24:11.064Z,101623.41
2024-01-11T01:27:14.113Z,101629.50
2024-01-11T01:30:16.990Z,101631.53
2024-01-11T01:33:19.572Z,101611.56
2024-01-11T01:36:22.436Z,101604.91
2024-01-11T01:39:25.158Z,101597.91
2024-01-11T01:42:27.835Z,101620.25
2024-01-11T01:45:30.269Z,101649.78
2024-01-11T01:48:33.539Z,101640.28
2024-01-11T01:51:36.132Z,101645.06
2024-01-11T01:54:39.038Z,101650.16
2024-01-11T01:57:42.225Z,101646.88
2024-01-11T02:00:46.342Z,101619.03
2024-01-11T02:03:52.021Z,101637.06
2024-01-11T02:06:56.726Z,101620.94
2024-01-11T02:09:59.910Z,101617.75
2024-01-11T02:13:02.812Z,101606.06
2024-01-11T02:16:05.599Z,101609.44
2024-01-11T02:19:14.900Z,101623.53
2024-01-11T02:22:23.937Z,101615.66
2024-01-11T02:25:26.684Z,101611.03
2024-01-11T02:28:29.187Z,101607.75
2024-01-11T02:31:32.007Z,101601.13
2024-01-11T02:34:35.674Z,101589.38
2024-01-11T02:37:39.987Z,101595.59
2024-01-11T02:40:43.277Z,101597.72
2024-01-11T02:43:49.938Z,101613.28
2024-01-11T02:46:52.583Z,101609.47
2024-01-11T02:49:55.214Z,101605.31
2024-01-11T02:52:57.765Z,101583.94
2024-01-11T02:56:03.180Z,101579.88
2024-01-11T02:59:06.030Z,101567.69
2024-01-11T03:02:09.164Z,101570.44
2024-01-11T03:05:12.210Z,101581.47
2024-01-11T03:08:15.522Z,101563.88
2024-01-11T03:11:18.174Z,101570.75
2024-01-11T03:14:20.951Z,101553.03
2024-01-11T03:17:23.462Z,101551.44
2024-01-11T03:20:26.350Z,101540.16
2024-01-11T03:23:28.821Z,101522.78
2024-01-11T03:26:31.722Z,101506.84
2024-01-11T03:29:35.087Z,101494.56
2024-01-11T03:32:38.097Z,101477.63
2024-01-11T03:35:41.779Z,101469.53
2024-01-11T03:38:44.695Z,101462.94
2024-01-11T03:41:47.130Z,101476.38
2024-01-11T03:44:49.768Z,101481.00
2024-01-11T03:47:52.570Z,101478.84
2024-01-11T03:50:55.438Z,101476.66
2024-01-11T03:53:57.921Z,101473.06
2024-01-11T03:57:00.824Z,101477.16
2024-01-11T04:00:03.450Z,101474.22
2024-01-11T04:03:08.432Z,101471.28
2024-01-11T04:06:11.011Z,101468.78
2024-01-11T04:09:13.750Z,101474.06
2024-01-11T04:12:16.184Z,101469.53
2024-01-11T04:15:18.938Z,101476.28
2024-01-11T04:18:21.486Z,101469.22
2024-01-11T04:21:31.086Z,101487.25
2024-01-11T04:24:33.444Z,101500.84
2024-01-11T04:27:36.231Z,101497.47
2024-01-11T04:30:38.792Z,101494.75
2024-01-11T04:33:43.321Z,101483.47
2024-01-11T04:36:46.291Z,101481.31
2024-01-11T04:39:49.077Z,101488.09
2024-01-11T04:42:51.518Z,101475.81
2024-01-11T04:45:54.449Z,101472.63
2024-01-11T04:48:56.983Z,101472.03
2024-01-11T04:51:59.889Z,101473.34
2024-01-11T04:55:03.340Z,101467.78
2024-01-11T04:58:06.246Z,101472.03
2024-01-11T05:01:09.045Z,101465.94
2024-01-11T05:04:11.882Z,101455.88
2024-01-11T05:07:14.377Z,101445.09
2024-01-11T05:10:17.206Z,101436.75
2024-01-11T05:13:20.225Z,101443.47
2024-01-11T05:16:24.052Z,101444.97
2024-01-11T05:19:26.534Z,101444.06
2024-01-11T05:22:29.272Z,101416.88
2024-01-11T05:25:34.999Z,101425.88
2024-01-11T05:28:39.833Z,101425.88
2024-01-11T05:31:42.413Z,101407.09
2024-01-11T05:34:45.888Z,101405.97
2024-01-11T05:37:48.278Z,101401.44
2024-01-11T05:40:50.970Z,101397.16
2024-01-11T05:43:53.358Z,101398.19
2024-01-11T05:46:56.241Z,101389.28
2024-01-11T05:49:58.983Z,101399.97
2024-01-11T05:53:01.703Z,101397.63
2024-01-11T05:56:09.918Z,101383.63
2024-01-11T05:59:13.086Z,101371.56
2024-01-11T06:02:15.677Z,101368.66
2024-01-11T06:05:19.856Z,101362.06
2024-01-11T06:08:22.472Z,101377.53
2024-01-11T06:11:25.354Z,101379.66
2024-01-11T06:14:28.796Z,101367.25
2024-01-11T06:17:31.728Z,101368.28
2024-01-11T06:20:34.334Z,101369.03
2024-01-11T06:23:37.169Z,101363.41
2024-01-11T06:26:39.759Z,101359.91
2024-01-11T06:29:42.840Z,101349.75
2024-01-11T06:32:45.394Z,101357.31
2024-01-11T06:35:48.277Z,101347.59
2024-01-11T06:38:50.725Z,101335.88
2024-01-11T06:41:53.503Z,101335.44
2024-01-11T06:44:55.959Z,101345.34
2024-01-11T06:47:58.880Z,101347.38
2024-01-11T06:51:02.488Z,101344.88
2024-01-11T06:54:05.729Z,101343.69
2024-01-11T06:57:08.167Z,101344.03
2024-01-11T07:00:11.686Z,101337.22
2024-01-11T07:03:14.132Z,101332.34
2024-01-11T07:06:17.576Z,101330.97
2024-01-11T07:09:20.339Z,101330.06
2024-01-11T07:12:23.236Z,101332.75
2024-01-11T07:15:25.737Z,101340.69
2024-01-11T07:18:28.721Z,101329.06
2024-01-11T07:21:32.875Z,101318.50
2024-01-11T07:24:39.207Z,101323.91
2024-01-11T07:27:42.342Z,101318.72
2024-01-11T07:30:45.309Z,101326.81
2024-01-11T07:33:48.025Z,101322.25
2024-01-11T07:36:50.878Z,101323.16
2024-01-11T07:39:53.455Z,101324.47
2024-01-11T07:42:56.263Z,101341.53
2024-01-11T07:45:58.773Z,101338.22
2024-01-11T07:49:01.825Z,101336.94
2024-01-11T07:52:06.016Z,101338.75
2024-01-11T07:55:11.194Z,101327.97
2024-01-11T07:58:14.002Z,101335.47
2024-01-11T08:01:17.630Z,101329.97
2024-01-11T08:04:20.225Z,101323.16
2024-01-11T08:07:23.403Z,101338.16
2024-01-11T08:10:25.816Z,101320.47
2024-01-11T08:13:28.731Z,101317.97
2024-01-11T08:16:31.188Z,101325.97
2024-01-11T08:19:34.311Z,101325.56
2024-01-11T08:22:38.718Z,101329.38
2024-01-11T08:25:41.530Z,101327.69
2024-01-11T08:28:44.052Z,101329.56
2024-01-11T08:31:50.279Z,101337.56
2024-01-11T08:34:52.810Z,101333.47
2024-01-11T08:37:55.751Z,101333.97
2024-01-11T08:41:00.074Z,101335.19
2024-01-11T08:44:04.263Z,101328.16
2024-01-11T08:47:06.912Z,101324.56
2024-01-11T08:50:09.918Z,101326.66
2024-01-11T08:53:12.399Z,101317.53
2024-01-11T08:56:17.475Z,101317.63
2024-01-11T08:59:19.984Z,101317.53
2024-01-11T09:02:26.420Z,101312.47
2024-01-11T09:05:30.100Z,101306.78
2024-01-11T09:08:33.271Z,101300.25
2024-01-11T09:11:35.756Z,101305.53
2024-01-11T09:14:38.625Z,101302.00
2024-01-11T09:17:41.214Z,101291.25
2024-01-11T09:20:44.216Z,101292.53
2024-01-11T09:23:47.053Z,101287.69
2024-01-11T09:26:51.439Z,101294.69
2024-01-11T09:29:56.792Z,101277.63
2024-01-11T09:33:00.399Z,101264.72
2024-01-11T09:36:03.023Z,101264.00
2024-01-11T09:39:07.212Z,101256.97
2024-01-11T09:42:11.507Z,101267.78
2024-01-11T09:45:17.422Z,101255.56
2024-01-11T09:48:21.835Z,101263.72
2024-01-11T09:51:25.137Z,101249.78
2024-01-11T09:54:27.693Z,101240.47
2024-01-11T09:57:31.949Z,101239.81
2024-01-11T10:00:34.888Z,101236.69
2024-01-11T10:03:38.357Z,101232.38
2024-01-11T10:06:40.960Z,101238.41
2024-01-11T10:09:43.731Z,101241.97
2024-01-11T10:12:46.522Z,101244.94
2024-01-11T10:15:49.354Z,101254.09
2024-01-11T10:18:55.554Z,101245.03
2024-01-11T10:22:00.519Z,101246.19
2024-01-11T10:25:12.680Z,101235.47
2024-01-11T10:28:16.004Z,101242.66
2024-01-11T10:31:19.522Z,101228.56
2024-01-11T10:34:22.708Z,101217.72
2024-01-11T10:37:25.651Z,101233.56
2024-01-11T10:40:28.796Z,101233.72
2024-01-11T10:43:33.060Z,101235.69
2024-01-11T10:46:36.258Z,101231.47
2024-01-11T10:49:41.285Z,101230.38
2024-01-11T10:53:03.966Z,101219.22
2024-01-11T10:56:08.254Z,101224.66
2024-01-11T10:59:13.157Z,101213.25
2024-01-11T11:02:17.304Z,101202.00
2024-01-11T11:05:22.079Z,101212.75
2024-01-11T11:08:28.437Z,101198.28
2024-01-11T11:11:35.317Z,101195.91
2024-01-11T11:14:38.051Z,101194.13
2024-01-11T11:17:42.626Z,101187.19
2024-01-11T11:20:46.694Z,101184.63
2024-01-11T11:23:51.121Z,101171.88
2024-01-11T11:26:53.657Z,101164.94
2024-01-11T11:29:57.100Z,101164.09
2024-01-11T11:32:59.810Z,101154.72
2024-01-11T11:36:04.603Z,101156.50
2024-01-11T11:39:07.227Z,101153.22
2024-01-11T11:42:11.309Z,101152.50
2024-01-11T11:45:26.856Z,101141.09
2024-01-11T11:48:32.875Z,101147.63
2024-01-11T11:51:36.431Z,101163.63
2024-01-11T11:54:40.363Z,101155.34
2024-01-11T11:57:45.251Z,101161.56
2024-01-11T12:00:49.198Z,101154.19
2024-01-11T12:03:52.011Z,101142.28
2024-01-11T12:06:55.649Z,101152.25
2024-01-11T12:09:58.337Z,101152.06
2024-01-11T12:13:02.039Z,101148.78
2024-01-11T12:16:04.828Z,101143.97
2024-01-11T12:19:08.052Z,101129.19
2024-01-11T12:22:10.619Z,101132.94
2024-01-11T12:25:13.637Z,101141.22
2024-01-11T12:28:16.389Z,101147.59
2024-01-11T12:31:21.244Z,101153.00
2024-01-11T12:34:25.025Z,101149.59
2024-01-11T12:37:28.034Z,101139.81
2024-01-11T12:40:41.950Z,101136.03
2024-01-11T12:43:44.990Z,101135.13
2024-01-11T12:46:50.430Z,101146.56
2024-01-11T12:49:53.475Z,101134.19
2024-01-11T12:53:25.740Z,101124.91
2024-01-11T12:56:28.929Z,101115.94
2024-01-11T12:59:31.616Z,101108.47
2024-01-11T13:02:35.216Z,101113.94
2024-01-11T13:05:37.841Z,101109.84
2024-01-11T13:08:44.228Z,101121.34
2024-01-11T13:11:46.826Z,101131.28
2024-01-11T13:14:52.355Z,101126.03
2024-01-11T13:17:55.018Z,101127.81
2024-01-11T13:20:57.997Z,101123.72
2024-01-11T13:24:00.497Z,101120.50
2024-01-11T13:27:04.469Z,101111.03
2024-01-11T13:30:09.600Z,101128.66
2024-01-11T13:33:13.195Z,101128.66
2024-01-11T13:36:16.620Z,101112.47
2024-01-11T13:39:19.731Z,101105.63
2024-01-11T13:42:22.372Z,101102.47
2024-01-11T13:45:26.143Z,101093.09
2024-01-11T13:48:28.870Z,101088.56
2024-01-11T13:51:40.351Z,101078.59
2024-01-11T13:54:48.260Z,101072.81
2024-01-11T13:57:52.135Z,101076.31
2024-01-11T14:00:56.167Z,101067.72
2024-01-11T14:03:59.893Z,101067.63
2024-01-11T14:07:04.674Z,101068.59
2024-01-11T14:10:09.912Z,101071.22
2024-01-11T14:13:12.626Z,101063.38
2024-01-11T14:16:17.221Z,101063.66
2024-01-11T14:19:20.124Z,101083.06
2024-01-11T14:22:24.772Z,101060.41
2024-01-11T14:25:27.978Z,101060.34
2024-01-11T14:28:31.275Z,101055.38
2024-01-11T14:31:33.744Z,101068.34
2024-01-11T14:34:36.913Z,101084.19
2024-01-11T14:37:41.042Z,101097.53
2024-01-11T14:40:44.182Z,101092.97
2024-01-11T14:43:47.676Z,101109.72
2024-01-11T14:46:50.707Z,101107.84
2024-01-11T14:49:53.331Z,101113.53
2024-01-11T14:52:56.328Z,101104.69
2024-01-11T14:55:59.339Z,101096.97
2024-01-11T14:59:03.337Z,101105.25
2024-01-11T15:02:06.381Z,101104.28
2024-01-11T15:05:09.934Z,101107.09
2024-01-11T15:08:13.299Z,101108.13
2024-01-11T15:11:16.526Z,101105.59
2024-01-11T15:14:19.334Z,101117.84
2024-01-11T15:17:22.738Z,101120.56
2024-01-11T15:20:25.362Z,101131.28
2024-01-11T15:23:28.409Z,101125.91
2024-01-11T15:26:31.138Z,101123.28
2024-01-11T15:29:34.888Z,101131.13
2024-01-11T15:32:38.014Z,101129.53
2024-01-11T15:35:41.551Z,101132.81
2024-01-11T15:38:44.401Z,101130.19
2024-01-11T15:41:50.851Z,101132.13
2024-01-11T15:44:54.086Z,101130.34
2024-01-11T15:47:57.118Z,101135.47
2024-01-11T15:51:01.476Z,101132.88
2024-01-11T15:54:05.236Z,101137.84
2024-01-11T15:57:08.516Z,101142.44
2024-01-11T16:00:13.153Z,101130.53
2024-01-11T16:03:15.949Z,101128.41
2024-01-11T16:06:19.266Z,101129.28
2024-01-11T16:09:22.123Z,101126.81
2024-01-11T16:12:25.668Z,101121.63
2024-01-11T16:15:28.437Z,101127.63
2024-01-11T16:18:36.167Z,101119.84
2024-01-11T16:21:38.994Z,101130.34
2024-01-11T16:24:42.899Z,101130.25
2024-01-11T16:27:45.531Z,101138.44
2024-01-11T16:30:48.678Z,101143.56
2024-01-11T16:33:51.411Z,101144.50
2024-01-11T16:36:54.606Z,101158.63
2024-01-11T16:39:57.668Z,101149.88
2024-01-11T16:43:01.500Z,101139.56
2024-01-11T16:46:05.509Z,101157.31
2024-01-11T16:49:11.226Z,101158.91
2024-01-11T16:52:14.055Z,101167.81
2024-01-11T16:55:18.229Z,101167.25
2024-01-11T16:58:21.014Z,101169.88
2024-01-11T17:01:24.568Z,101165.56
2024-01-11T17:04:27.360Z,101169.38
2024-01-11T17:07:30.493Z,101175.25
2024-01-11T17:10:34.451Z,101172.63
2024-01-11T17:13:37.598Z,101177.03
2024-01-11T17:16:40.313Z,101182.28
2024-01-11T17:19:43.530Z,101195.72
2024-01-11T17:22:46.465Z,101187.47
2024-01-11T17:25:49.744Z,101179.66
2024-01-11T17:28:53.254Z,101196.34
2024-01-11T17:31:56.618Z,101200.06
2024-01-11T17:34:59.427Z,101203.25
2024-01-11T17:38:02.816Z,101209.31
2024-01-11T17:41:06.040Z,101196.28
2024-01-11T17:44:09.275Z,101209.19
2024-01-11T17:47:12.249Z,101219.47
2024-01-11T17:50:15.395Z,101205.16
2024-01-11T17:53:18.168Z,101202.84
2024-01-11T17:56:22.674Z,101208.06
2024-01-11T17:59:25.417Z,101199.66
2024-01-11T18:02:29.098Z,101204.56
2024-01-11T18:05:31.955Z,101210.84
2024-01-11T18:08:35.333Z,101218.16
2024-01-11T18:11:38.764Z,101222.63
2024-01-11T18:14:42.223Z,101223.88
2024-01-11T18:17:45.098Z,101224.63
2024-01-11T18:20:51.014Z,101216.75
2024-01-11T18:23:53.845Z,101222.97
2024-01-11T18:26:57.151Z,101222.28
2024-01-11T18:30:00.015Z,101211.50
2024-01-11T18:33:04.748Z,101221.06
2024-01-11T18:36:08.822Z,101232.19
2024-01-11T18:39:12.154Z,101236.41
2024-01-11T18:42:14.877Z,101237.44
2024-01-11T18:45:17.998Z,101241.44
2024-01-11T18:48:20.945Z,101242.81
2024-01-11T18:51:24.351Z,101228.47
2024-01-11T18:54:27.620Z,101245.47
2024-01-11T18:57:30.365Z,101244.47
2024-01-11T19:00:33.156Z,101252.53
2024-01-11T19:03:37.169Z,101258.44
2024-01-11T19:06:40.023Z,101264.81
2024-01-11T19:09:44.135Z,101261.22
2024-01-11T19:12:47.113Z,101262.41
2024-01-11T19:15:50.507Z,101274.38
2024-01-11T19:18:53.643Z,101270.78
2024-01-11T19:21:56.681Z,101270.50
2024-01-11T19:25:00.266Z,101279.00
2024-01-11T19:28:03.607Z,101295.75
2024-01-11T19:31:09.961Z,101296.06
2024-01-11T19:34:13.426Z,101299.41
2024-01-11T19:37:18.573Z,101302.47
2024-01-11T19:40:22.700Z,101315.31
2024-01-11T19:43:25.362Z,101325.72
2024-01-11T19:46:28.970Z,101329.09
2024-01-11T19:49:33.044Z,101336.56
2024-01-11T19:52:36.500Z,101334.16
2024-01-11T19:55:41.562Z,101341.84
2024-01-11T19:58:46.179Z,101338.66
2024-01-11T20:01:52.212Z,101344.94
2024-01-11T20:04:56.853Z,101350.00
2024-01-11T20:07:59.982Z,101360.25
2024-01-11T20:11:03.021Z,101364.47
2024-01-11T20:14:07.463Z,101368.41
2024-01-11T20:17:10.948Z,101381.22
2024-01-11T20:20:14.098Z,101392.63
2024-01-11T20:23:17.517Z,101380.66
2024-01-11T20:26:24.821Z,101389.22
2024-01-11T20:29:29.045Z,101389.78
2024-01-11T20:32:31.754Z,101392.06
2024-01-11T20:35:35.599Z,101402.41
2024-01-11T20:38:40.335Z,101398.41
2024-01-11T20:41:46.763Z,101405.06
2024-01-11T20:44:49.613Z,101394.13
2024-01-11T20:47:54.556Z,101404.47
2024-01-11T20:50:57.631Z,101406.75
2024-01-11T20:54:02.483Z,101410.13
2024-01-11T20:57:05.185Z,101415.00
2024-01-11T21:00:10.514Z,101416.63
2024-01-11T21:03:13.912Z,101420.69
2024-01-11T21:06:17.334Z,101414.28
2024-01-11T21:09:20.047Z,101425.47
2024-01-11T21:12:23.099Z,101424.88
2024-01-11T21:15:25.505Z,101441.31
2024-01-11T21:18:28.522Z,101445.19
2024-01-11T21:21:31.278Z,101454.47
2024-01-11T21:24:34.237Z,101460.78
2024-01-11T21:27:36.836Z,101472.09
2024-01-11T21:30:39.760Z,101480.31
2024-01-11T21:33:45.506Z,101481.09
2024-01-11T21:36:48.556Z,101489.94
2024-01-11T21:39:51.163Z,101491.53
2024-01-11T21:42:54.371Z,101481.81
2024-01-11T21:45:56.849Z,101480.47
2024-01-11T21:49:00.168Z,101496.75
2024-01-11T21:52:03.954Z,101494.84
2024-01-11T21:55:08.128Z,101500.19
2024-01-11T21:58:10.724Z,101504.69
2024-01-11T22:01:13.542Z,101508.09
2024-01-11T22:04:16.076Z,101508.53
2024-01-11T22:07:19.137Z,101513.75
2024-01-11T22:10:22.131Z,101518.81
2024-01-11T22:13:25.021Z,101534.09
2024-01-11T22:16:27.585Z,101527.41
2024-01-11T22:19:30.611Z,101522.75
2024-01-11T22:22:33.228Z,101524.81
2024-01-11T22:25:36.348Z,101536.13
2024-01-11T22:28:38.878Z,101536.88
2024-01-11T22:31:41.863Z,101542.81
2024-01-11T22:34:44.617Z,101535.97
2024-01-11T22:37:47.565Z,101548.22
2024-01-11T22:40:50.529Z,101550.53
2024-01-11T22:43:53.959Z,101548.72
2024-01-11T22:46:56.427Z,101567.72
2024-01-11T22:49:59.274Z,101565.19
2024-01-11T22:53:01.916Z,101565.13
2024-01-11T22:56:04.864Z,101576.31
2024-01-11T22:59:10.951Z,101575.84
2024-01-11T23:02:14.012Z,101584.09
2024-01-11T23:05:18.271Z,101579.59
2024-01-11T23:08:21.274Z,101580.59
2024-01-11T23:11:23.816Z,101587.81
2024-01-11T23:14:26.714Z,101595.97
2024-01-11T23:17:29.430Z,101592.94
2024-01-11T23:20:32.610Z,101598.16
2024-01-11T23:23:35.106Z,101597.16
2024-01-11T23:26:38.460Z,101587.72
2024-01-11T23:29:41.310Z,101598.16
2024-01-11T23:32:44.379Z,101593.97
2024-01-11T23:35:46.822Z,101590.50
2024-01-11T23:38:53.323Z,101603.53
2024-01-11T23:41:56.064Z,101604.31
2024-01-11T23:44:59.009Z,101604.84
2024-01-11T23:48:01.621Z,101606.34
2024-01-11T23:51:05.562Z,101609.03
2024-01-11T23:54:08.140Z,101611.97
2024-01-11T23:57:11.097Z,101619.66
